createdAt,value
2023-01-29T00:03:14.718Z,11.5
2023-01-29T00:08:14.603Z,11.4
2023-01-29T00:13:14.611Z,11.3
2023-01-29T00:18:14.627Z,11.3
2023-01-29T00:23:14.699Z,11.3
2023-01-29T00:28:14.681Z,11.3
2023-01-29T00:33:14.613Z,11.3
2023-01-29T00:38:14.602Z,11.3
2023-01-29T00:43:14.610Z,11.4
2023-01-29T00:48:14.681Z,11.5
2023-01-29T00:53:14.617Z,11.6
2023-01-29T00:58:15.129Z,11.6
2023-01-29T01:03:14.755Z,11.9
2023-01-29T01:08:14.626Z,11.9
2023-01-29T01:13:14.705Z,11.6
2023-01-29T01:18:34.789Z,11.6
2023-01-29T01:23:15.124Z,11.6
2023-01-29T01:28:14.759Z,11.6
2023-01-29T01:33:14.641Z,11.6
2023-01-29T01:38:14.679Z,11.6
2023-01-29T01:43:14.656Z,11.6
2023-01-29T01:48:14.661Z,11.6
2023-01-29T01:53:14.623Z,11.7
2023-01-29T01:58:14.623Z,11.7
2023-01-29T02:03:14.628Z,11.7
2023-01-29T02:08:14.645Z,11.8
2023-01-29T02:13:14.615Z,11.8
2023-01-29T02:18:14.628Z,11.9
2023-01-29T02:23:14.630Z,12.1
2023-01-29T02:28:14.666Z,12.1
2023-01-29T02:33:14.636Z,12.1
2023-01-29T02:38:14.722Z,12.1
2023-01-29T02:43:14.631Z,11.8
2023-01-29T02:48:14.635Z,11.7
2023-01-29T02:53:14.659Z,11.7
2023-01-29T02:58:14.678Z,11.7
2023-01-29T03:08:15.135Z,11.7
2023-01-29T03:13:14.661Z,11.8
2023-01-29T03:18:14.729Z,11.8
2023-01-29T03:23:14.632Z,11.8
2023-01-29T03:28:14.635Z,11.8
2023-01-29T03:33:14.683Z,11.8
2023-01-29T03:38:14.639Z,11.8
2023-01-29T03:43:14.635Z,11.8
2023-01-29T03:48:14.700Z,11.7
2023-01-29T03:53:14.662Z,11.7
2023-01-29T03:58:14.701Z,11.7
2023-01-29T04:03:14.637Z,11.7
2023-01-29T04:08:14.649Z,11.7
2023-01-29T04:13:14.658Z,11.7
2023-01-29T04:18:14.654Z,11.7
2023-01-29T04:23:14.654Z,12
2023-01-29T04:28:14.700Z,12.1
2023-01-29T04:33:14.654Z,12.1
2023-01-29T04:38:14.684Z,12.1
2023-01-29T04:43:14.679Z,12.1
2023-01-29T04:48:15.171Z,12.1
2023-01-29T04:53:14.688Z,12.1
2023-01-29T04:58:14.677Z,12
2023-01-29T05:03:14.654Z,12
2023-01-29T05:08:15.721Z,12
2023-01-29T05:13:14.669Z,12
2023-01-29T05:18:14.648Z,12.3
2023-01-29T05:23:14.652Z,12.3
2023-01-29T05:28:14.687Z,12.4
2023-01-29T05:33:14.830Z,12.5
2023-01-29T05:38:14.660Z,12.5
2023-01-29T05:43:14.656Z,12.4
2023-01-29T05:48:14.711Z,12.4
2023-01-29T05:53:14.663Z,12.4
2023-01-29T05:58:14.704Z,12.4
2023-01-29T06:03:14.804Z,12.2
2023-01-29T06:08:14.652Z,11.8
2023-01-29T06:13:14.694Z,11.8
2023-01-29T06:18:14.660Z,12.2
2023-01-29T06:23:14.659Z,12.1
2023-01-29T06:28:14.678Z,11.8
2023-01-29T06:33:14.712Z,12.1
2023-01-29T06:38:14.664Z,12.2
2023-01-29T06:43:14.674Z,12.3
2023-01-29T06:48:14.687Z,12.2
2023-01-29T06:53:14.682Z,12.1
2023-01-29T06:58:14.675Z,12.1
2023-01-29T07:03:14.683Z,12.1
2023-01-29T07:08:14.797Z,11.9
2023-01-29T07:13:14.693Z,11.9
2023-01-29T07:18:14.672Z,11.6
2023-01-29T07:23:14.817Z,11.6
2023-01-29T07:28:14.748Z,11.9
2023-01-29T07:33:14.694Z,11.9
2023-01-29T07:38:14.803Z,12
2023-01-29T07:43:14.691Z,12
2023-01-29T07:48:14.693Z,12.1
2023-01-29T07:53:14.680Z,12.1
2023-01-29T07:58:14.696Z,12.1
2023-01-29T08:03:14.729Z,11.8
2023-01-29T08:08:14.709Z,11.8
2023-01-29T08:13:14.706Z,11.8
2023-01-29T08:18:14.824Z,11.8
2023-01-29T08:23:14.752Z,11.8
2023-01-29T08:28:14.736Z,11.8
2023-01-29T08:33:15.273Z,11.8
2023-01-29T08:38:14.685Z,12.3
2023-01-29T08:43:14.705Z,13
2023-01-29T08:48:14.706Z,14.1
2023-01-29T08:53:14.700Z,14.4
2023-01-29T08:58:14.934Z,14.4
2023-01-29T09:03:14.743Z,15.6
2023-01-29T09:08:14.698Z,16.7
2023-01-29T09:13:14.778Z,15.6
2023-01-29T09:18:14.950Z,15.6
2023-01-29T09:23:14.734Z,14.4
2023-01-29T09:28:14.817Z,13.1
2023-01-29T09:33:14.701Z,13.1
2023-01-29T09:38:14.706Z,13.1
2023-01-29T09:43:14.728Z,13.1
2023-01-29T09:48:14.699Z,13.1
2023-01-29T09:53:14.741Z,12.9
2023-01-29T09:58:14.700Z,13.1
2023-01-29T10:03:14.699Z,13.8
2023-01-29T10:08:14.714Z,13.8
2023-01-29T10:13:14.715Z,13.6
2023-01-29T10:18:14.695Z,13.6
2023-01-29T10:23:14.712Z,13.5
2023-01-29T10:28:14.716Z,13.6
2023-01-29T10:33:14.750Z,13.5
2023-01-29T10:38:14.791Z,13.4
2023-01-29T10:43:14.745Z,13.4
2023-01-29T10:48:14.787Z,13.5
2023-01-29T10:53:14.732Z,13.3
2023-01-29T10:58:14.717Z,13.3
2023-01-29T11:03:26.754Z,13.3
2023-01-29T11:08:14.719Z,13.1
2023-01-29T11:13:14.740Z,13.1
2023-01-29T11:18:14.769Z,13.1
2023-01-29T11:23:15.725Z,13.1
2023-01-29T11:28:14.756Z,13.1
2023-01-29T11:33:14.777Z,13.1
2023-01-29T11:38:14.740Z,13.1
2023-01-29T11:43:14.715Z,12.9
2023-01-29T11:48:14.765Z,12.3
2023-01-29T11:53:14.717Z,12.3
2023-01-29T11:58:14.775Z,12.3
2023-01-29T12:03:14.780Z,12.3
2023-01-29T12:08:15.297Z,12.3
2023-01-29T12:13:14.738Z,12.3
2023-01-29T12:18:14.714Z,12.1
2023-01-29T12:23:14.784Z,12.1
2023-01-29T12:28:15.196Z,12
2023-01-29T12:33:14.785Z,12
2023-01-29T12:38:14.761Z,11.7
2023-01-29T12:43:14.745Z,11.7
2023-01-29T12:48:15.258Z,11.7
2023-01-29T12:53:14.782Z,11.7
2023-01-29T12:58:14.777Z,11.7
2023-01-29T13:03:14.815Z,11.4
2023-01-29T13:08:14.774Z,11.4
2023-01-29T13:13:14.831Z,11.4
2023-01-29T13:18:14.742Z,11.4
2023-01-29T13:23:14.749Z,11.4
2023-01-29T13:28:15.035Z,11.4
2023-01-29T13:33:17.775Z,11.4
2023-01-29T13:38:14.743Z,11.2
2023-01-29T13:43:14.767Z,11.2
2023-01-29T13:48:14.750Z,11.1
2023-01-29T13:53:14.793Z,11.1
2023-01-29T13:58:14.857Z,11
2023-01-29T14:03:14.738Z,10.9
2023-01-29T14:08:14.795Z,11
2023-01-29T14:13:14.782Z,10.9
2023-01-29T14:18:14.767Z,10.9
2023-01-29T14:23:14.792Z,10.8
2023-01-29T14:28:14.802Z,10.8
2023-01-29T14:33:14.789Z,10.9
2023-01-29T14:38:14.806Z,10.9
2023-01-29T14:43:14.803Z,10.9
2023-01-29T14:48:14.874Z,10.9
2023-01-29T14:53:14.840Z,10.9
2023-01-29T14:58:14.768Z,11
2023-01-29T15:03:14.821Z,11
2023-01-29T15:08:14.777Z,11
2023-01-29T15:13:14.775Z,11
2023-01-29T15:18:15.768Z,11
2023-01-29T15:23:14.750Z,11
2023-01-29T15:28:14.815Z,11.1
2023-01-29T15:33:14.831Z,11
2023-01-29T15:38:14.779Z,11.1
2023-01-29T15:43:14.784Z,11.1
2023-01-29T15:48:14.783Z,11.1
2023-01-29T15:53:14.769Z,11.5
2023-01-29T15:58:17.804Z,12.9
2023-01-29T16:03:14.814Z,13.1
2023-01-29T16:08:14.811Z,13.1
2023-01-29T16:13:14.795Z,13.1
2023-01-29T16:18:14.775Z,12.9
2023-01-29T16:23:14.838Z,12
2023-01-29T16:28:14.801Z,12
2023-01-29T16:33:14.825Z,11.8
2023-01-29T16:38:15.281Z,11.8
2023-01-29T16:43:14.776Z,11.8
2023-01-29T16:48:14.800Z,12.2
2023-01-29T16:53:14.825Z,13.5
2023-01-29T16:58:14.799Z,13.6
2023-01-29T17:03:14.796Z,14
2023-01-29T17:08:14.785Z,14.9
2023-01-29T17:13:14.863Z,16.1
2023-01-29T17:18:14.819Z,17.3
2023-01-29T17:23:14.815Z,28.3
2023-01-29T17:28:14.811Z,28.6
2023-01-29T17:33:14.789Z,28.6
2023-01-29T17:38:25.808Z,29.6
2023-01-29T17:43:14.792Z,29.6
2023-01-29T17:48:14.817Z,29.7
2023-01-29T17:53:14.807Z,29.7
2023-01-29T17:58:14.818Z,29.7
2023-01-29T18:03:14.796Z,26.8
2023-01-29T18:13:17.718Z,18.9
2023-01-29T18:18:14.809Z,18.8
2023-01-29T18:23:14.793Z,18.9
2023-01-29T18:28:14.861Z,19.6
2023-01-29T18:33:15.861Z,20.3
2023-01-29T18:38:14.926Z,20.3
2023-01-29T18:43:14.978Z,20.3
2023-01-29T18:48:14.792Z,20.3
2023-01-29T18:53:14.860Z,20.3
2023-01-29T18:58:25.350Z,19.8
2023-01-29T19:03:14.800Z,19.8
2023-01-29T19:08:16.005Z,19.8
2023-01-29T19:13:14.846Z,19.8
2023-01-29T19:18:15.877Z,26.1
2023-01-29T19:23:14.826Z,26.1
2023-01-29T19:28:14.820Z,26.1
2023-01-29T19:33:14.831Z,26.1
2023-01-29T19:38:14.837Z,25.7
2023-01-29T19:43:14.849Z,24.6
2023-01-29T19:48:14.836Z,24.3
2023-01-29T19:53:14.851Z,24.3
2023-01-29T19:58:14.838Z,24.6
2023-01-29T20:03:14.825Z,24.3
2023-01-29T20:08:14.814Z,24.3
2023-01-29T20:13:14.841Z,24.6
2023-01-29T20:18:14.820Z,24.6
2023-01-29T20:23:16.702Z,24.6
2023-01-29T20:28:14.845Z,23.8
2023-01-29T20:33:14.863Z,22.5
2023-01-29T20:38:14.840Z,22.5
2023-01-29T20:43:14.822Z,22.4
2023-01-29T20:48:14.835Z,22.4
2023-01-29T20:53:14.879Z,22.4
2023-01-29T20:58:14.852Z,22.4
2023-01-29T21:03:14.829Z,31.7
2023-01-29T21:08:14.868Z,32.9
2023-01-29T21:13:14.825Z,36.9
2023-01-29T21:18:14.825Z,36.9
2023-01-29T21:23:14.878Z,36.9
2023-01-29T21:28:14.863Z,31.7
2023-01-29T21:33:14.846Z,22.5
2023-01-29T21:38:14.849Z,22
2023-01-29T21:43:14.860Z,22
2023-01-29T21:48:14.850Z,21.8
2023-01-29T21:53:14.845Z,21.8
2023-01-29T21:58:15.843Z,21.8
2023-01-29T22:03:14.830Z,21.8
2023-01-29T22:08:14.852Z,22.3
2023-01-29T22:13:15.007Z,23.2
2023-01-29T22:18:14.846Z,22.3
2023-01-29T22:23:14.989Z,22.3
2023-01-29T22:28:14.841Z,22.3
2023-01-29T22:33:14.833Z,22
2023-01-29T22:38:14.877Z,22
2023-01-29T22:43:14.872Z,20
2023-01-29T22:48:14.845Z,20
2023-01-29T22:53:14.872Z,19.3
2023-01-29T22:58:14.895Z,19.3
2023-01-29T23:03:14.848Z,19.3
2023-01-29T23:08:14.877Z,20.2
2023-01-29T23:13:14.932Z,20.2
2023-01-29T23:18:15.216Z,20.2
2023-01-29T23:23:14.848Z,19.9
2023-01-29T23:28:14.855Z,19.9
2023-01-29T23:33:14.849Z,19.9
2023-01-29T23:38:14.844Z,19.8
2023-01-29T23:43:14.857Z,19.8
2023-01-29T23:48:14.853Z,19.9
2023-01-29T23:53:14.884Z,20.3
2023-01-29T23:58:14.882Z,20.4
